• Join FlightAware (Why Join?)
  • Login
  • US Flag 
07:02PM EDT


 

Airport Tracker/Info


-or-


 

Live Flight TrackerFlight Track Log ✈ N490JC ✈ 20-Aug-2013 ✈ KAUS - KRDU

Flight Track Log - Related Links

Times and Time Zones

All times are in EDT time to prevent confusion due to time zone crossing. See the N490JC flight status page for this flight to view local times or setup timezone preferences in your user account.

Time Position Orientation Groundspeed Altitude Reporting Facility
EDT Latitude Longitude Course Direction KTS MPH feet Rate Location/Type
06:05PM 30.0736 -97.6169 90° East 246 283 4,400  Level Houston Center
06:06PM 30.0700 -97.5417 93° East 265 305 6,500 2,160 Climbing Houston Center
06:07PM 30.0639 -97.4528 95° East 274 315 8,900 1,860 Climbing Houston Center
06:08PM 30.0606 -97.3628 92° East 279 321 10,400 1,500 Climbing Houston Center
06:09PM 30.3333 -96.9858 90° East  Level FlightAware Approximate
06:09PM 30.0847 -97.2406 77° East 318 366 12,000  Level Houston Center
06:10PM 30.3333 -96.8532 90° East  Level FlightAware Approximate
06:10PM 30.1031 -97.1425 78° East 330 380 13,300  Level Houston Center
06:11PM 30.1219 -97.0339 79° East 339 390 14,300 1,200 Climbing Houston Center
06:12PM 30.1408 -96.9217 79° East 350 403 15,800 1,380 Climbing Houston Center
06:13PM 30.1631 -96.7947 79° East 346 398 17,200 1,020 Climbing Houston Center
06:14PM 30.1808 -96.6811 80° East 354 407 18,000 960 Climbing Houston Center
06:15PM 30.2011 -96.5667 78° East 360 414 19,200 1,020 Climbing Houston Center
06:16PM 30.2214 -96.4528 78° East 359 413 20,200 960 Climbing Houston Center
06:17PM 30.2408 -96.3375 79° East 362 417 21,300 900 Climbing Houston Center
06:18PM 30.2594 -96.2200 80° East 368 423 22,100 840 Climbing Houston Center
06:19PM 30.2822 -96.0817 79° East 373 429 23,100 720 Climbing Houston Center
06:20PM 30.3108 -95.9800 72° East 373 429 23,600 660 Climbing Houston Center
06:21PM 30.3481 -95.8667 69° East 377 434 24,500 840 Climbing Houston Center
06:22PM 30.3881 -95.7278 72° East 379 436 25,400 780 Climbing Houston Center
06:23PM 30.4250 -95.6069 70° East 384 442 26,200 660 Climbing Houston Center
06:24PM 30.4603 -95.4889 71° East 387 445 26,800 660 Climbing Houston Center
06:25PM 30.4967 -95.3744 70° East 380 437 27,600 540 Climbing Houston Center
06:26PM 30.5317 -95.2592 71° East 380 437 28,000 420 Climbing Houston Center
06:27PM 30.5650 -95.1428 72° East 382 440 28,500 480 Climbing Houston Center
06:28PM 30.6075 -95.0028 71° East 386 444 29,100 480 Climbing Houston Center
06:29PM 30.6428 -94.8856 71° East 388 447 29,600 420 Climbing Houston Center
06:31PM 30.6767 -94.7664 72° East 391 450 30,000 420 Climbing Houston Center
06:32PM 30.7114 -94.6478 71° East 390 449 30,500 480 Climbing Houston Center
06:33PM 30.7464 -94.5289 71° East 392 451 31,000 480 Climbing Houston Center
06:34PM 30.7894 -94.3814 71° East 400 460 31,600 480 Climbing Houston Center
06:35PM 30.8264 -94.2556 71° East 409 471 32,100 480 Climbing Houston Center
06:36PM 30.8625 -94.1356 71° East 411 473 32,600 480 Climbing Houston Center
06:37PM 30.8989 -94.0075 72° East 414 476 33,100 480 Climbing Houston Center
06:38PM 30.9375 -93.8744 71° East 420 483 33,700 480 Climbing Houston Center
06:39PM 30.9731 -93.7519 71° East 412 474 34,200 540 Climbing Houston Center
06:40PM 31.0164 -93.6017 71° East 407 468 34,900 540 Climbing Houston Center
06:41PM 31.0522 -93.4758 72° East 407 468 35,400 480 Climbing Houston Center
06:42PM 31.0872 -93.3497 72° East 407 468 36,000 540 Climbing Houston Center
06:43PM 31.1239 -93.2231 71° East 409 471 36,600 480 Climbing Houston Center
06:44PM 31.1594 -93.0958 72° East 411 473 37,000 180 Climbing Houston Center
06:45PM 31.1956 -92.9653 72° East 419 482 37,000  Level Houston Center
06:46PM 31.2319 -92.8303 72° East 431 496 37,000  Level Houston Center
06:47PM 31.2778 -92.6639 72° East 434 499 37,000  Level Houston Center
06:48PM 31.3167 -92.5258 72° East 449 517 37,000  Level Houston Center
06:49PM 31.3550 -92.3864 72° East 450 518 37,000  Level Houston Center
06:50PM 31.3917 -92.2461 73° East 448 516 37,000 60 Level Houston Center
06:51PM 31.4297 -92.1069 72° East 448 516 37,200 360 Climbing Houston Center
06:52PM 31.4669 -91.9667 73° East 442 509 37,800 540 Climbing Houston Center
06:53PM 31.5094 -91.8061 73° East 432 497 38,400 480 Climbing Houston Center
06:54PM 31.5453 -91.6747 72° East 426 490 38,900 240 Climbing Houston Center
06:55PM 31.5808 -91.5422 72° East 426 490 39,000  Climbing Houston Center
06:56PM 31.6158 -91.4064 73° East 434 499 39,000  Level Houston Center
06:57PM 31.6531 -91.2692 72° East 442 509 39,000  Level Houston Center
06:58PM 31.6889 -91.1300 73° East 446 513 39,000  Level Houston Center
06:59PM 31.7283 -90.9761 73° East 450 518 39,000  Level Houston Center
07:00PM 31.7647 -90.8350 73° East 451 519 39,000  Level Houston Center
07:02PM 31.8022 -90.6917 73° East 457 526 39,000  Level Houston Center
07:03PM 31.8383 -90.5478 74° East 459 528 39,000  Level Houston Center
07:04PM 31.8831 -90.3739 73° East 462 532 39,000  Level Houston Center
07:04PM 31.9100 -90.2692 73° East 451 519 39,000  Level Memphis Center
07:05PM 31.9453 -90.1222 74° East 457 526 39,000  Level Memphis Center
07:06PM 31.9825 -89.9803 73° East 452 520 39,000  Level Memphis Center
07:07PM 32.0175 -89.8356 74° East 457 526 39,000  Level Memphis Center
07:08PM 32.0542 -89.6883 74° East 457 526 39,000  Level Memphis Center
07:09PM 32.0889 -89.5433 74° East 457 526 39,000  Level Memphis Center
07:10PM 32.1214 -89.4106 74° East 457 526 39,000  Level Memphis Center
07:11PM 32.1597 -89.2653 73° East 457 526 39,000  Level Memphis Center
07:12PM 32.1939 -89.1175 75° East 457 526 39,000  Level Memphis Center
07:13PM 32.2319 -88.9697 73° East 457 526 39,000  Level Memphis Center
07:14PM 32.2658 -88.8267 74° East 457 526 39,000  Level Memphis Center
07:17PM 32.3733 -88.3892 74° East 453 521 39,000  Level Atlanta Center
07:18PM 32.4078 -88.2383 75° East 458 527 39,000  Level Atlanta Center
07:19PM 32.4444 -88.0753 75° East 440 506 39,000  Level Atlanta Center
07:20PM 32.4758 -87.9414 74° East 457 526 39,000  Level Atlanta Center
07:21PM 32.5078 -87.7925 76° East 465 535 39,000  Level Atlanta Center
07:22PM 32.5456 -87.6436 73° East 470 541 39,000  Level Atlanta Center
07:23PM 32.5769 -87.4997 75° East 465 535 39,000  Level Atlanta Center
07:24PM 32.6100 -87.3553 75° East 455 524 39,000  Level Atlanta Center
07:25PM 32.6450 -87.2111 74° East 449 517 39,000  Level Atlanta Center
07:26PM 32.6739 -87.0667 77° East 449 517 39,000  Level Atlanta Center
07:27PM 32.7044 -86.9244 76° East 449 517 39,000  Level Atlanta Center
07:28PM 32.7389 -86.7775 74° East 449 517 39,000  Level Atlanta Center
07:29PM 32.7714 -86.6353 75° East 449 517 39,000  Level Atlanta Center
07:30PM 32.8056 -86.4881 75° East 449 517 39,000  Level Atlanta Center
07:31PM 32.8378 -86.3356 76° East 455 524 39,000  Level Atlanta Center
07:32PM 32.8697 -86.1881 76° East 455 524 39,000  Level Atlanta Center
07:33PM 32.9036 -86.0256 76° East 460 529 39,000  Level Atlanta Center
07:34PM 32.9353 -85.8778 76° East 455 524 39,000  Level Atlanta Center
07:35PM 32.9644 -85.7322 77° East 450 518 39,000  Level Atlanta Center
07:36PM 32.9956 -85.5892 75° East 450 518 39,000  Level Atlanta Center
07:37PM 33.0286 -85.4411 75° East 450 518 39,000  Level Atlanta Center
07:38PM 33.0528 -85.3225 76° East 450 518 39,000  Level Atlanta Center
07:39PM 33.0858 -85.1494 77° East 450 518 39,000  Level Atlanta Center
07:40PM 33.1164 -84.9986 76° East 456 525 39,000  Level Atlanta Center
07:41PM 33.1467 -84.8428 77° East 463 533 39,000  Level Atlanta Center
07:42PM 33.1767 -84.6917 77° East 470 541 39,000  Level Atlanta Center
07:43PM 33.2089 -84.5378 76° East 470 541 39,000  Level Atlanta Center
07:44PM 33.2406 -84.3867 76° East 470 541 39,000  Level Atlanta Center
07:45PM 33.2703 -84.2300 77° East 475 547 39,000  Level Atlanta Center
07:46PM 33.3017 -84.0786 76° East 468 539 39,000  Level Atlanta Center
07:47PM 33.3308 -83.9219 77° East 476 548 39,000  Level Atlanta Center
07:48PM 33.3597 -83.7728 77° East 470 541 39,000  Level Atlanta Center
07:49PM 33.3886 -83.6208 77° East 469 540 39,000  Level Atlanta Center
07:50PM 33.4153 -83.4864 77° East 463 533 39,000  Level Atlanta Center
07:51PM 33.4436 -83.3342 77° East 463 533 39,000  Level Atlanta Center
07:52PM 33.4697 -83.1822 78° East 468 539 39,000 -300 Level Atlanta Center
07:53PM 33.4978 -83.0325 77° East 468 539 38,400 -900 Descending Atlanta Center
07:54PM 33.5300 -82.8875 75° East 455 524 37,200 -1,200 Descending Atlanta Center
07:55PM 33.5997 -82.7594 57° Northeast 458 527 36,100 -1,140 Descending Atlanta Center
07:56PM 33.6714 -82.6336 56° Northeast 453 521 35,000 -720 Descending Atlanta Center
07:57PM 33.7492 -82.5072 53° Northeast 453 521 34,700 -600 Descending Atlanta Center
08:00PM 33.9450 -82.1692 55° Northeast 472 543 33,000 -540 Descending Jacksonville Center
08:01PM 34.0233 -82.0456 53° Northeast 466 536 33,000  Level Jacksonville Center
08:02PM 34.1039 -81.9219 52° Northeast 460 529 33,000  Level Jacksonville Center
08:03PM 34.1822 -81.7956 53° Northeast 466 536 33,000  Level Jacksonville Center
08:04PM 34.2644 -81.6689 52° Northeast 466 536 33,000  Level Jacksonville Center
08:05PM 34.3425 -81.5394 54° Northeast 466 536 33,000  Level Jacksonville Center
08:06PM 34.4078 -81.4028 60° Northeast 466 536 33,000  Level Jacksonville Center
08:07PM 34.4644 -81.2708 62° Northeast 455 524 33,000  Level Jacksonville Center
08:08PM 34.5292 -81.1208 62° Northeast 463 533 33,000 -540 Level Jacksonville Center
08:09PM 34.5708 -80.9814 70° East 462 532 32,000 -1,560 Descending Jacksonville Center
08:10PM 34.6042 -80.8342 75° East 450 518 29,900 -2,160 Descending Jacksonville Center
08:11PM 34.6433 -80.6844 72° East 445 512 27,700 -2,340 Descending Jacksonville Center
08:12PM 34.6781 -80.5372 74° East 458 527 25,200 -1,860 Descending Jacksonville Center
08:13PM 34.7125 -80.3794 75° East 473 544 24,000 -960 Descending Jacksonville Center
08:14PM 34.7450 -80.2347 75° East 460 529 23,300 -480 Descending Jacksonville Center
08:15PM 34.7956 -80.0583 71° East 425 489 23,000 -180 Descending Washington Center
08:16PM 34.8981 -79.9425 43° Northeast 426 490 23,000  Level Washington Center
08:17PM 34.9894 -79.8383 43° Northeast 431 496 23,000  Level Washington Center
08:18PM 35.0828 -79.7367 42° Northeast 437 503 23,000 -480 Level Washington Center
08:19PM 35.1761 -79.6322 42° Northeast 443 510 22,100 -1,440 Descending Washington Center
08:20PM 35.2278 -79.5839 37° Northeast 459 528 20,800 -1,980 Descending Washington Center
08:21PM 35.3431 -79.5006 31° Northeast 405 466 18,800 -1,560 Descending Washington Center
08:22PM 35.4328 -79.4414 28° Northeast 342 394 17,500 -1,500 Descending Washington Center
08:23PM 35.5056 -79.3836 33° Northeast 324 373 16,000 -1,740 Descending Washington Center
08:24PM 35.5625 -79.2944 52° Northeast 329 379 14,200 -1,740 Descending Washington Center
08:25PM 35.6133 -79.2072 54° Northeast 321 369 12,500 -1,560 Descending Washington Center
08:26PM 35.6658 -79.1203 53° Northeast 318 366 11,100 -1,260 Descending Washington Center
08:27PM 35.7272 -79.0206 53° Northeast 304 350 9,600 -1,140 Descending Washington Center
08:28PM 35.7625 -78.9581 55° Northeast 249 287 8,800 -900 Descending Washington Center
08:29PM 35.8142 -78.9014 42° Northeast 246 283 8,000 -660 Descending Washington Center
08:30PM 35.8833 -78.8811 13° North 246 283 7,500 -1,080 Descending Washington Center
08:31PM 35.9511 -78.8456 23° Northeast 241 277 5,700 -1,620 Descending Washington Center
08:32PM 36.0006 -78.7961 39° Northeast 231 266 4,100 -1,380 Descending Washington Center
08:33PM 36.0419 -78.7311 52° Northeast 226 260 3,000 -960 Descending Washington Center
08:34PM 35.9928 -78.6958 150° Southeast 196 226 2,100 -540 Descending Washington Center
08:35PM 35.9528 -78.7122 198° South 131 151 1,900 -480 Descending Washington Center
08:36PM 35.9225 -78.7444 221° Southwest 127 146 1,100 -660 Descending Washington Center
08:37PM 35.9053 -78.7642 223° Southwest 119 137 800 -420 Descending Washington Center
08:39PM 35.8776 -78.7875 215° Southwest  Level Estimated
08:46PM 35.8776 -78.7875 215° Southwest  Level Estimated